SKK39 FKKD-DXXX
Flight info
| Callsign | SKK39 |
|---|---|
| Flight time | N/A |
| Altitude | 34000 |
| Route | ERPIS1B ERPIS DCT EBROT DCT ARDEX UA601 KIPSA DCT GATKA GATKA1L |
| Aircraft | B738/M-SDE2E3FGHIRWXY/LB1 |
Departure
| Time | 2026-04-17 07:37 |
|---|---|
| Airport | Douala International Airport (FKKD) |
Arrival
| Time | N/A |
|---|---|
| Airport | Lomé–Tokoin International Airport (DXXX) |
| Time | Latitude | Longitude | Altitude | Speed | Heading |
|---|---|---|---|---|---|
| 2026-04-17 07:01 | 4.01174 | 9.71695 | 35 ft | 0 kts | 117° |
| 2026-04-17 07:25 | 4.01176 | 9.71692 | 34 ft | 4 kts | 116° |
| 2026-04-17 07:25 | 4.01187 | 9.71668 | 35 ft | 4 kts | 117° |
| 2026-04-17 07:25 | 4.01196 | 9.71656 | 31 ft | 2 kts | 172° |
| 2026-04-17 07:25 | 4.01207 | 9.71658 | 32 ft | 2 kts | 205° |
| 2026-04-17 07:26 | 4.01213 | 9.71661 | 33 ft | 0 kts | 206° |
| 2026-04-17 07:30 | 4.01212 | 9.71660 | 33 ft | 1 kts | 206° |
| 2026-04-17 07:31 | 4.01185 | 9.71647 | 35 ft | 8 kts | 206° |
| 2026-04-17 07:31 | 4.01109 | 9.71610 | 35 ft | 15 kts | 201° |
| 2026-04-17 07:31 | 4.01027 | 9.71665 | 33 ft | 17 kts | 115° |
| 2026-04-17 07:31 | 4.00938 | 9.71725 | 34 ft | 18 kts | 201° |
| 2026-04-17 07:32 | 4.00841 | 9.71673 | 35 ft | 0 kts | 209° |
| 2026-04-17 07:32 | 4.00839 | 9.71672 | 35 ft | 1 kts | 209° |
| 2026-04-17 07:33 | 4.00818 | 9.71662 | 35 ft | 6 kts | 200° |
| 2026-04-17 07:33 | 4.00760 | 9.71675 | 35 ft | 13 kts | 123° |
| 2026-04-17 07:33 | 4.00699 | 9.71779 | 32 ft | 21 kts | 114° |
| 2026-04-17 07:33 | 4.00643 | 9.71922 | 33 ft | 24 kts | 117° |
| 2026-04-17 07:34 | 4.00559 | 9.72079 | 31 ft | 27 kts | 121° |
| 2026-04-17 07:34 | 4.00464 | 9.72246 | 29 ft | 27 kts | 117° |
| 2026-04-17 07:34 | 4.00381 | 9.72411 | 27 ft | 26 kts | 117° |
| 2026-04-17 07:34 | 4.00304 | 9.72564 | 27 ft | 24 kts | 116° |
| 2026-04-17 07:35 | 4.00231 | 9.72709 | 26 ft | 23 kts | 116° |
| 2026-04-17 07:35 | 4.00162 | 9.72849 | 29 ft | 22 kts | 118° |
| 2026-04-17 07:35 | 4.00092 | 9.72982 | 28 ft | 18 kts | 117° |
| 2026-04-17 07:35 | 4.00076 | 9.73080 | 24 ft | 14 kts | 119° |
| 2026-04-17 07:36 | 4.00042 | 9.73053 | 24 ft | 10 kts | 304° |
| 2026-04-17 07:36 | 4.00085 | 9.72999 | 26 ft | 10 kts | 297° |
| 2026-04-17 07:36 | 4.00087 | 9.72994 | 26 ft | 0 kts | 297° |
| 2026-04-17 07:36 | 4.00096 | 9.72976 | 30 ft | 14 kts | 297° |
| 2026-04-17 07:37 | 4.00239 | 9.72690 | 26 ft | 82 kts | 297° |
| 2026-04-17 07:37 | 4.00602 | 9.71970 | 33 ft | 146 kts | 297° |
| 2026-04-17 07:37 | 4.00950 | 9.71313 | 165 ft | 168 kts | 300° |
| 2026-04-17 07:37 | 4.01630 | 9.70393 | 951 ft | 158 kts | 318° |
| 2026-04-17 07:38 | 4.02517 | 9.69200 | 1688 ft | 173 kts | 273° |
| 2026-04-17 07:38 | 4.02215 | 9.67952 | 2035 ft | 202 kts | 243° |
| 2026-04-17 07:38 | 4.01569 | 9.66597 | 2264 ft | 228 kts | 245° |
| 2026-04-17 07:38 | 4.01128 | 9.65590 | 2493 ft | 239 kts | 247° |
| 2026-04-17 07:39 | 4.00498 | 9.64032 | 2923 ft | 253 kts | 248° |
| 2026-04-17 07:39 | 3.99868 | 9.62325 | 3366 ft | 268 kts | 250° |
| 2026-04-17 07:39 | 3.99261 | 9.60539 | 4143 ft | 272 kts | 251° |
| 2026-04-17 07:39 | 3.98680 | 9.58720 | 4956 ft | 276 kts | 252° |
| 2026-04-17 07:40 | 3.98113 | 9.56854 | 5696 ft | 283 kts | 253° |
| 2026-04-17 07:40 | 3.97555 | 9.54947 | 6460 ft | 287 kts | 253° |
| 2026-04-17 07:40 | 3.97002 | 9.53008 | 7153 ft | 293 kts | 253° |
| 2026-04-17 07:40 | 3.96447 | 9.51028 | 7849 ft | 298 kts | 254° |
| 2026-04-17 07:41 | 3.95887 | 9.49007 | 8566 ft | 303 kts | 254° |
| 2026-04-17 07:41 | 3.95330 | 9.46977 | 9260 ft | 308 kts | 254° |
| 2026-04-17 07:41 | 3.94757 | 9.44880 | 9949 ft | 313 kts | 254° |
| 2026-04-17 07:41 | 3.94173 | 9.42734 | 10411 ft | 327 kts | 254° |
| 2026-04-17 07:42 | 3.93565 | 9.40496 | 10952 ft | 335 kts | 254° |
| 2026-04-17 07:42 | 3.92957 | 9.38255 | 11620 ft | 338 kts | 254° |
| 2026-04-17 07:42 | 3.92338 | 9.35973 | 12318 ft | 341 kts | 254° |
| 2026-04-17 07:42 | 3.91712 | 9.33663 | 12999 ft | 344 kts | 254° |
| 2026-04-17 07:43 | 3.91080 | 9.31329 | 13668 ft | 348 kts | 254° |
| 2026-04-17 07:43 | 3.90448 | 9.29000 | 14240 ft | 352 kts | 255° |
| 2026-04-17 07:43 | 3.89806 | 9.26629 | 14867 ft | 354 kts | 255° |
| 2026-04-17 07:43 | 3.89157 | 9.24236 | 15484 ft | 356 kts | 255° |
| 2026-04-17 07:44 | 3.88507 | 9.21839 | 16087 ft | 359 kts | 255° |
| 2026-04-17 07:44 | 3.87846 | 9.19402 | 16657 ft | 363 kts | 255° |
| 2026-04-17 07:44 | 3.87178 | 9.16938 | 17227 ft | 367 kts | 255° |
| 2026-04-17 07:44 | 3.86536 | 9.14570 | 17846 ft | 368 kts | 255° |
| 2026-04-17 07:45 | 3.85860 | 9.12079 | 18428 ft | 370 kts | 255° |
| 2026-04-17 07:45 | 3.85181 | 9.09576 | 18932 ft | 372 kts | 255° |
| 2026-04-17 07:45 | 3.84487 | 9.07102 | 19437 ft | 375 kts | 250° |
| 2026-04-17 07:45 | 3.83341 | 9.04734 | 19918 ft | 378 kts | 246° |
| 2026-04-17 07:46 | 3.82765 | 9.02183 | 20362 ft | 380 kts | 272° |
| 2026-04-17 07:46 | 3.83301 | 8.99615 | 20842 ft | 379 kts | 295° |
| 2026-04-17 07:46 | 3.84298 | 8.97170 | 21349 ft | 381 kts | 290° |
| 2026-04-17 07:46 | 3.85095 | 8.94660 | 21803 ft | 384 kts | 287° |
| 2026-04-17 07:47 | 3.85805 | 8.92059 | 22243 ft | 388 kts | 285° |
| 2026-04-17 07:47 | 3.86475 | 8.89423 | 22705 ft | 391 kts | 284° |
| 2026-04-17 07:47 | 3.87130 | 8.86776 | 23183 ft | 394 kts | 284° |
| 2026-04-17 07:47 | 3.87791 | 8.84098 | 23599 ft | 397 kts | 284° |
| 2026-04-17 07:48 | 3.88460 | 8.81399 | 23973 ft | 399 kts | 284° |
| 2026-04-17 07:48 | 3.89138 | 8.78688 | 24332 ft | 403 kts | 284° |
| 2026-04-17 07:48 | 3.89816 | 8.75986 | 24695 ft | 405 kts | 284° |
| 2026-04-17 07:48 | 3.90508 | 8.73237 | 25102 ft | 406 kts | 284° |
| 2026-04-17 07:49 | 3.91200 | 8.70494 | 25499 ft | 408 kts | 284° |
| 2026-04-17 07:49 | 3.91899 | 8.67727 | 25871 ft | 410 kts | 284° |
| 2026-04-17 07:49 | 3.92602 | 8.64947 | 26235 ft | 412 kts | 284° |
| 2026-04-17 07:49 | 3.93307 | 8.62155 | 26617 ft | 414 kts | 284° |
| 2026-04-17 07:50 | 3.94017 | 8.59346 | 26915 ft | 418 kts | 284° |
| 2026-04-17 07:50 | 3.94733 | 8.56508 | 27227 ft | 421 kts | 284° |
| 2026-04-17 07:50 | 3.95444 | 8.53693 | 27588 ft | 423 kts | 284° |
| 2026-04-17 07:50 | 3.96167 | 8.50829 | 27993 ft | 423 kts | 284° |
| 2026-04-17 07:51 | 3.96891 | 8.47963 | 28360 ft | 424 kts | 284° |
| 2026-04-17 07:51 | 3.97617 | 8.45084 | 28684 ft | 427 kts | 284° |
| 2026-04-17 07:51 | 3.98347 | 8.42193 | 29000 ft | 429 kts | 284° |
| 2026-04-17 07:51 | 3.99084 | 8.39271 | 29326 ft | 431 kts | 284° |
| 2026-04-17 07:52 | 3.99809 | 8.36398 | 29656 ft | 433 kts | 283° |
| 2026-04-17 07:52 | 4.00550 | 8.33458 | 29964 ft | 435 kts | 283° |
| 2026-04-17 07:52 | 4.01292 | 8.30517 | 30242 ft | 436 kts | 283° |
| 2026-04-17 07:52 | 4.02036 | 8.27567 | 30512 ft | 438 kts | 283° |
| 2026-04-17 07:53 | 4.02782 | 8.24605 | 30758 ft | 440 kts | 283° |
| 2026-04-17 07:53 | 4.03533 | 8.21627 | 30992 ft | 442 kts | 283° |
| 2026-04-17 07:53 | 4.04278 | 8.18669 | 31254 ft | 443 kts | 283° |
| 2026-04-17 07:53 | 4.05034 | 8.15671 | 31517 ft | 444 kts | 283° |
| 2026-04-17 07:54 | 4.05793 | 8.12655 | 31770 ft | 445 kts | 283° |
| 2026-04-17 07:54 | 4.06553 | 8.09639 | 32009 ft | 446 kts | 283° |
| 2026-04-17 07:54 | 4.07304 | 8.06656 | 32232 ft | 448 kts | 283° |
| 2026-04-17 07:54 | 4.08070 | 8.03616 | 32462 ft | 449 kts | 283° |
| 2026-04-17 07:55 | 4.08835 | 8.00577 | 32686 ft | 451 kts | 283° |
| 2026-04-17 07:55 | 4.09607 | 7.97508 | 32903 ft | 452 kts | 283° |
| 2026-04-17 07:55 | 4.10380 | 7.94436 | 33040 ft | 456 kts | 283° |
| 2026-04-17 07:55 | 4.11149 | 7.91382 | 33168 ft | 459 kts | 283° |
| 2026-04-17 07:56 | 4.11934 | 7.88266 | 33342 ft | 461 kts | 284° |
| 2026-04-17 07:56 | 4.12895 | 7.85197 | 33621 ft | 460 kts | 290° |
| 2026-04-17 07:56 | 4.14083 | 7.82214 | 33900 ft | 459 kts | 291° |
| 2026-04-17 07:56 | 4.15333 | 7.79256 | 33878 ft | 462 kts | 292° |
| 2026-04-17 07:57 | 4.17851 | 7.73352 | 33884 ft | 460 kts | 292° |
| 2026-04-17 07:57 | 4.20304 | 7.67461 | 33887 ft | 456 kts | 291° |
| 2026-04-17 07:58 | 4.22698 | 7.61622 | 33894 ft | 454 kts | 291° |
| 2026-04-17 07:58 | 4.25101 | 7.55751 | 33895 ft | 454 kts | 291° |
| 2026-04-17 07:59 | 4.27478 | 7.49943 | 33894 ft | 453 kts | 291° |
| 2026-04-17 07:59 | 4.29875 | 7.44092 | 33892 ft | 454 kts | 291° |
| 2026-04-17 08:00 | 4.32277 | 7.38225 | 33895 ft | 454 kts | 291° |
| 2026-04-17 08:00 | 4.34664 | 7.32350 | 33893 ft | 455 kts | 291° |
| 2026-04-17 08:01 | 4.37037 | 7.26485 | 33895 ft | 456 kts | 291° |
| 2026-04-17 08:01 | 4.39426 | 7.20583 | 33892 ft | 457 kts | 291° |
| 2026-04-17 08:02 | 4.41825 | 7.14660 | 33893 ft | 458 kts | 291° |
| 2026-04-17 08:02 | 4.44215 | 7.08758 | 33894 ft | 459 kts | 291° |
| 2026-04-17 08:03 | 4.46605 | 7.02855 | 33889 ft | 459 kts | 291° |
| 2026-04-17 08:03 | 4.49013 | 6.96903 | 33890 ft | 459 kts | 291° |
| 2026-04-17 08:04 | 4.51399 | 6.91006 | 33890 ft | 459 kts | 291° |
| 2026-04-17 08:04 | 4.53808 | 6.85087 | 33884 ft | 458 kts | 291° |
| 2026-04-17 08:05 | 4.56220 | 6.79176 | 33889 ft | 457 kts | 291° |
| 2026-04-17 08:05 | 4.58621 | 6.73282 | 33883 ft | 456 kts | 291° |
| 2026-04-17 08:06 | 4.61003 | 6.67434 | 33885 ft | 454 kts | 291° |
| 2026-04-17 08:06 | 4.63168 | 6.62141 | 33886 ft | 453 kts | 291° |
| 2026-04-17 08:07 | 4.65095 | 6.57456 | 33889 ft | 452 kts | 291° |
| 2026-04-17 08:07 | 4.67474 | 6.51667 | 33885 ft | 451 kts | 291° |
| 2026-04-17 08:08 | 4.69865 | 6.45841 | 33885 ft | 450 kts | 291° |
| 2026-04-17 08:08 | 4.72233 | 6.40067 | 33885 ft | 450 kts | 291° |
| 2026-04-17 08:09 | 4.74612 | 6.34266 | 33885 ft | 449 kts | 291° |
| 2026-04-17 08:09 | 4.76985 | 6.28475 | 33882 ft | 449 kts | 291° |
| 2026-04-17 08:10 | 4.79362 | 6.22676 | 33887 ft | 449 kts | 291° |
| 2026-04-17 08:10 | 4.81740 | 6.16871 | 33879 ft | 450 kts | 291° |
| 2026-04-17 08:11 | 4.84085 | 6.11094 | 33884 ft | 450 kts | 290° |
| 2026-04-17 08:11 | 4.86425 | 6.05253 | 33892 ft | 450 kts | 290° |
| 2026-04-17 08:12 | 4.88762 | 5.99416 | 33886 ft | 450 kts | 290° |
| 2026-04-17 08:12 | 4.91088 | 5.93615 | 33884 ft | 451 kts | 290° |
| 2026-04-17 08:13 | 4.93437 | 5.87759 | 33881 ft | 451 kts | 290° |
| 2026-04-17 08:14 | 4.96934 | 5.79037 | 33884 ft | 451 kts | 291° |
| 2026-04-17 08:14 | 4.98499 | 5.75133 | 33879 ft | 451 kts | 291° |
| 2026-04-17 08:15 | 5.01466 | 5.67729 | 33880 ft | 450 kts | 291° |
| 2026-04-17 08:15 | 5.03803 | 5.61897 | 33878 ft | 450 kts | 290° |
| 2026-04-17 08:16 | 5.06145 | 5.56084 | 33879 ft | 449 kts | 291° |
| 2026-04-17 08:16 | 5.08494 | 5.50281 | 33879 ft | 449 kts | 291° |
| 2026-04-17 08:17 | 5.10840 | 5.44482 | 33879 ft | 448 kts | 291° |
| 2026-04-17 08:17 | 5.13180 | 5.38690 | 33874 ft | 448 kts | 291° |
| 2026-04-17 08:18 | 5.15516 | 5.32902 | 33878 ft | 447 kts | 291° |
| 2026-04-17 08:18 | 5.17849 | 5.27123 | 33873 ft | 447 kts | 291° |
| 2026-04-17 08:19 | 5.20177 | 5.21353 | 33875 ft | 446 kts | 291° |
| 2026-04-17 08:19 | 5.22502 | 5.15588 | 33875 ft | 446 kts | 291° |
| 2026-04-17 08:20 | 5.24827 | 5.09823 | 33874 ft | 445 kts | 291° |
| 2026-04-17 08:20 | 5.27147 | 5.04069 | 33871 ft | 445 kts | 291° |
| 2026-04-17 08:21 | 5.29467 | 4.98312 | 33876 ft | 445 kts | 291° |
| 2026-04-17 08:21 | 5.31784 | 4.92559 | 33871 ft | 445 kts | 291° |
| 2026-04-17 08:22 | 5.34104 | 4.86800 | 33878 ft | 445 kts | 291° |
| 2026-04-17 08:22 | 5.36423 | 4.81040 | 33877 ft | 446 kts | 291° |
| 2026-04-17 08:23 | 5.38747 | 4.75264 | 33875 ft | 447 kts | 291° |
| 2026-04-17 08:23 | 5.41074 | 4.69481 | 33877 ft | 448 kts | 291° |
| 2026-04-17 08:24 | 5.43394 | 4.63711 | 33876 ft | 449 kts | 291° |
| 2026-04-17 08:24 | 5.45729 | 4.57891 | 33877 ft | 450 kts | 291° |
| 2026-04-17 08:25 | 5.48064 | 4.52052 | 33873 ft | 451 kts | 291° |
| 2026-04-17 08:25 | 5.50403 | 4.46199 | 33875 ft | 452 kts | 291° |
| 2026-04-17 08:26 | 5.52743 | 4.40342 | 33871 ft | 452 kts | 291° |
| 2026-04-17 08:26 | 5.55086 | 4.34478 | 33873 ft | 452 kts | 291° |
| 2026-04-17 08:27 | 5.57425 | 4.28621 | 33869 ft | 452 kts | 290° |
| 2026-04-17 08:27 | 5.59763 | 4.22768 | 33868 ft | 451 kts | 290° |
| 2026-04-17 08:28 | 5.62098 | 4.16917 | 33870 ft | 451 kts | 290° |
| 2026-04-17 08:28 | 5.64425 | 4.11083 | 33868 ft | 450 kts | 290° |
| 2026-04-17 08:29 | 5.66747 | 4.05262 | 33871 ft | 449 kts | 291° |
| 2026-04-17 08:29 | 5.69066 | 3.99446 | 33869 ft | 448 kts | 291° |
| 2026-04-17 08:30 | 5.71381 | 3.93638 | 33871 ft | 448 kts | 291° |
| 2026-04-17 08:30 | 5.73691 | 3.87840 | 33869 ft | 447 kts | 291° |
| 2026-04-17 08:31 | 5.76025 | 3.82046 | 33871 ft | 447 kts | 291° |
| 2026-04-17 08:31 | 5.78479 | 3.76316 | 33872 ft | 447 kts | 292° |
| 2026-04-17 08:32 | 5.80970 | 3.70572 | 33874 ft | 448 kts | 292° |
| 2026-04-17 08:32 | 5.83442 | 3.64832 | 33871 ft | 448 kts | 292° |
| 2026-04-17 08:33 | 5.85909 | 3.59075 | 33866 ft | 448 kts | 292° |
| 2026-04-17 08:33 | 5.88362 | 3.53341 | 33867 ft | 448 kts | 292° |
| 2026-04-17 08:34 | 5.90813 | 3.47611 | 33866 ft | 449 kts | 292° |
| 2026-04-17 08:34 | 5.93280 | 3.41840 | 33864 ft | 446 kts | 292° |
| 2026-04-17 08:35 | 5.95703 | 3.36174 | 33862 ft | 437 kts | 292° |
| 2026-04-17 08:35 | 5.98084 | 3.30603 | 33807 ft | 436 kts | 292° |
| 2026-04-17 08:35 | 5.99284 | 3.27793 | 33436 ft | 434 kts | 292° |
| 2026-04-17 08:36 | 6.00465 | 3.25029 | 33010 ft | 425 kts | 292° |
| 2026-04-17 08:36 | 6.01605 | 3.22361 | 32648 ft | 414 kts | 292° |
| 2026-04-17 08:36 | 6.02729 | 3.19728 | 32231 ft | 404 kts | 293° |
| 2026-04-17 08:36 | 6.03830 | 3.17149 | 31844 ft | 395 kts | 293° |
| 2026-04-17 08:37 | 6.04904 | 3.14633 | 31462 ft | 386 kts | 293° |
| 2026-04-17 08:37 | 6.05954 | 3.12173 | 31092 ft | 379 kts | 293° |
| 2026-04-17 08:37 | 6.06992 | 3.09741 | 30745 ft | 380 kts | 294° |
| 2026-04-17 08:37 | 6.08036 | 3.07294 | 30394 ft | 390 kts | 294° |
| 2026-04-17 08:38 | 6.09128 | 3.04735 | 29989 ft | 404 kts | 294° |
| 2026-04-17 08:38 | 6.10240 | 3.02129 | 29512 ft | 401 kts | 294° |
| 2026-04-17 08:38 | 6.11315 | 2.99609 | 29074 ft | 392 kts | 294° |
| 2026-04-17 08:38 | 6.12376 | 2.97119 | 28665 ft | 382 kts | 294° |
| 2026-04-17 08:39 | 6.13409 | 2.94695 | 28271 ft | 372 kts | 294° |
| 2026-04-17 08:39 | 6.14419 | 2.92325 | 27886 ft | 365 kts | 293° |
| 2026-04-17 08:39 | 6.15409 | 2.90004 | 27513 ft | 358 kts | 293° |
| 2026-04-17 08:39 | 6.16390 | 2.87702 | 27159 ft | 358 kts | 293° |
| 2026-04-17 08:40 | 6.17385 | 2.85366 | 26814 ft | 371 kts | 293° |
| 2026-04-17 08:40 | 6.18422 | 2.82932 | 26407 ft | 387 kts | 293° |
| 2026-04-17 08:40 | 6.19477 | 2.80456 | 25987 ft | 387 kts | 292° |
| 2026-04-17 08:40 | 6.20519 | 2.77989 | 25575 ft | 378 kts | 290° |
| 2026-04-17 08:41 | 6.21185 | 2.75468 | 25173 ft | 369 kts | 277° |
| 2026-04-17 08:41 | 6.21378 | 2.72923 | 24654 ft | 364 kts | 267° |
| 2026-04-17 08:41 | 6.21111 | 2.70424 | 24245 ft | 357 kts | 259° |
| 2026-04-17 08:41 | 6.20699 | 2.67961 | 23834 ft | 354 kts | 259° |
| 2026-04-17 08:42 | 6.20279 | 2.65573 | 23473 ft | 350 kts | 258° |
| 2026-04-17 08:42 | 6.19991 | 2.63940 | 23171 ft | 352 kts | 258° |
| 2026-04-17 08:43 | 6.17821 | 2.51292 | 21177 ft | 350 kts | 259° |
| 2026-04-17 08:43 | 6.17417 | 2.48895 | 20817 ft | 344 kts | 259° |
| 2026-04-17 08:44 | 6.17021 | 2.46539 | 20461 ft | 339 kts | 259° |
| 2026-04-17 08:44 | 6.16627 | 2.44200 | 20118 ft | 339 kts | 259° |
| 2026-04-17 08:44 | 6.16226 | 2.41820 | 19750 ft | 354 kts | 259° |
| 2026-04-17 08:44 | 6.15806 | 2.39333 | 19356 ft | 364 kts | 259° |
| 2026-04-17 08:45 | 6.15386 | 2.36836 | 18952 ft | 358 kts | 259° |
| 2026-04-17 08:45 | 6.14979 | 2.34418 | 18568 ft | 351 kts | 259° |
| 2026-04-17 08:45 | 6.14575 | 2.32014 | 18193 ft | 345 kts | 259° |
| 2026-04-17 08:45 | 6.14178 | 2.29652 | 17788 ft | 339 kts | 259° |
| 2026-04-17 08:46 | 6.13787 | 2.27331 | 17431 ft | 334 kts | 259° |
| 2026-04-17 08:46 | 6.13405 | 2.25068 | 17075 ft | 331 kts | 259° |
| 2026-04-17 08:46 | 6.13018 | 2.22775 | 16729 ft | 336 kts | 259° |
| 2026-04-17 08:46 | 6.12616 | 2.20394 | 16366 ft | 350 kts | 260° |
| 2026-04-17 08:47 | 6.12209 | 2.17988 | 15978 ft | 346 kts | 260° |
| 2026-04-17 08:47 | 6.11812 | 2.15630 | 15611 ft | 338 kts | 260° |
| 2026-04-17 08:47 | 6.11423 | 2.13323 | 15255 ft | 330 kts | 260° |
| 2026-04-17 08:47 | 6.11047 | 2.11098 | 14912 ft | 323 kts | 260° |
| 2026-04-17 08:48 | 6.10673 | 2.08883 | 14567 ft | 321 kts | 260° |
| 2026-04-17 08:48 | 6.10299 | 2.06670 | 14210 ft | 319 kts | 261° |
| 2026-04-17 08:48 | 6.09924 | 2.04446 | 13882 ft | 326 kts | 261° |
| 2026-04-17 08:48 | 6.09542 | 2.02187 | 13514 ft | 335 kts | 261° |
| 2026-04-17 08:49 | 6.09152 | 1.99881 | 13116 ft | 332 kts | 261° |
| 2026-04-17 08:49 | 6.08770 | 1.97621 | 12750 ft | 324 kts | 261° |
| 2026-04-17 08:49 | 6.08396 | 1.95413 | 12395 ft | 316 kts | 261° |
| 2026-04-17 08:49 | 6.08032 | 1.93258 | 12056 ft | 311 kts | 261° |
| 2026-04-17 08:50 | 6.07671 | 1.91125 | 11728 ft | 309 kts | 261° |
| 2026-04-17 08:50 | 6.07310 | 1.88990 | 11410 ft | 311 kts | 261° |
| 2026-04-17 08:50 | 6.06939 | 1.86796 | 11073 ft | 324 kts | 261° |
| 2026-04-17 08:50 | 6.06563 | 1.84575 | 10713 ft | 328 kts | 261° |
| 2026-04-17 08:51 | 6.06306 | 1.83060 | 10483 ft | 323 kts | 261° |